sensor_id;sensor_type;location;lat;lon;timestamp;temperature;humidity
78054;DHT22;67726;45.636;11.752;2023-09-19T00:01:33;21.90;93.00
78054;DHT22;67726;45.636;11.752;2023-09-19T00:03:59;21.90;93.20
78054;DHT22;67726;45.636;11.752;2023-09-19T00:06:28;21.80;93.10
78054;DHT22;67726;45.636;11.752;2023-09-19T00:08:57;21.70;93.80
78054;DHT22;67726;45.636;11.752;2023-09-19T00:11:26;21.70;93.90
78054;DHT22;67726;45.636;11.752;2023-09-19T00:13:52;21.70;93.70
78054;DHT22;67726;45.636;11.752;2023-09-19T00:16:18;21.70;93.60
78054;DHT22;67726;45.636;11.752;2023-09-19T00:18:44;21.70;93.40
78054;DHT22;67726;45.636;11.752;2023-09-19T00:21:10;21.60;94.10
78054;DHT22;67726;45.636;11.752;2023-09-19T00:23:36;21.60;94.00
78054;DHT22;67726;45.636;11.752;2023-09-19T00:26:02;21.70;94.40
78054;DHT22;67726;45.636;11.752;2023-09-19T00:28:29;21.70;94.40
78054;DHT22;67726;45.636;11.752;2023-09-19T00:30:55;21.80;94.30
78054;DHT22;67726;45.636;11.752;2023-09-19T00:33:21;21.60;94.00
78054;DHT22;67726;45.636;11.752;2023-09-19T00:35:52;21.50;94.10
78054;DHT22;67726;45.636;11.752;2023-09-19T00:38:18;21.60;94.70
78054;DHT22;67726;45.636;11.752;2023-09-19T00:40:50;21.60;94.30
78054;DHT22;67726;45.636;11.752;2023-09-19T00:43:16;21.60;94.20
78054;DHT22;67726;45.636;11.752;2023-09-19T00:45:48;21.60;93.80
78054;DHT22;67726;45.636;11.752;2023-09-19T00:48:15;21.50;93.60
78054;DHT22;67726;45.636;11.752;2023-09-19T00:50:42;21.60;94.00
78054;DHT22;67726;45.636;11.752;2023-09-19T00:53:09;21.40;93.70
78054;DHT22;67726;45.636;11.752;2023-09-19T00:55:39;21.40;93.50
78054;DHT22;67726;45.636;11.752;2023-09-19T00:58:06;21.30;93.50
78054;DHT22;67726;45.636;11.752;2023-09-19T01:00:33;21.40;93.60
78054;DHT22;67726;45.636;11.752;2023-09-19T01:03:00;21.30;93.60
78054;DHT22;67726;45.636;11.752;2023-09-19T01:05:29;21.20;93.50
78054;DHT22;67726;45.636;11.752;2023-09-19T01:07:55;21.20;94.10
78054;DHT22;67726;45.636;11.752;2023-09-19T01:10:21;21.20;93.80
78054;DHT22;67726;45.636;11.752;2023-09-19T01:18:41;21.10;94.10
78054;DHT22;67726;45.636;11.752;2023-09-19T01:21:26;21.10;94.30
78054;DHT22;67726;45.636;11.752;2023-09-19T01:26:30;21.20;94.00
78054;DHT22;67726;45.636;11.752;2023-09-19T01:29:23;21.20;93.90
78054;DHT22;67726;45.636;11.752;2023-09-19T01:32:03;21.10;94.00
78054;DHT22;67726;45.636;11.752;2023-09-19T01:34:47;21.10;93.80
78054;DHT22;67726;45.636;11.752;2023-09-19T01:37:15;21.10;94.60
78054;DHT22;67726;45.636;11.752;2023-09-19T01:39:46;21.10;94.20
78054;DHT22;67726;45.636;11.752;2023-09-19T01:48:35;21.00;93.80
78054;DHT22;67726;45.636;11.752;2023-09-19T01:51:07;20.90;93.40
78054;DHT22;67726;45.636;11.752;2023-09-19T01:54:09;20.90;94.80
78054;DHT22;67726;45.636;11.752;2023-09-19T01:56:45;20.90;93.40
78054;DHT22;67726;45.636;11.752;2023-09-19T01:59:17;20.80;94.70
78054;DHT22;67726;45.636;11.752;2023-09-19T02:01:48;20.70;94.80
78054;DHT22;67726;45.636;11.752;2023-09-19T02:04:15;20.80;94.90
78054;DHT22;67726;45.636;11.752;2023-09-19T02:06:43;20.80;94.80
78054;DHT22;67726;45.636;11.752;2023-09-19T02:09:10;20.70;95.00
78054;DHT22;67726;45.636;11.752;2023-09-19T02:11:35;20.70;95.00
78054;DHT22;67726;45.636;11.752;2023-09-19T02:14:02;20.80;95.20
78054;DHT22;67726;45.636;11.752;2023-09-19T02:16:28;20.70;95.30
78054;DHT22;67726;45.636;11.752;2023-09-19T02:18:54;20.80;95.20
78054;DHT22;67726;45.636;11.752;2023-09-19T02:21:20;20.60;94.90
78054;DHT22;67726;45.636;11.752;2023-09-19T02:23:47;20.60;95.20
78054;DHT22;67726;45.636;11.752;2023-09-19T02:26:13;20.60;95.90
78054;DHT22;67726;45.636;11.752;2023-09-19T02:28:39;20.60;95.60
78054;DHT22;67726;45.636;11.752;2023-09-19T02:31:05;20.60;95.50
78054;DHT22;67726;45.636;11.752;2023-09-19T02:33:31;20.60;95.80
78054;DHT22;67726;45.636;11.752;2023-09-19T02:35:58;20.60;95.80
78054;DHT22;67726;45.636;11.752;2023-09-19T02:38:25;20.60;95.70
78054;DHT22;67726;45.636;11.752;2023-09-19T02:40:52;20.50;95.20
78054;DHT22;67726;45.636;11.752;2023-09-19T02:43:18;20.60;95.10
78054;DHT22;67726;45.636;11.752;2023-09-19T02:45:45;20.50;95.00
78054;DHT22;67726;45.636;11.752;2023-09-19T02:48:12;20.40;94.90
78054;DHT22;67726;45.636;11.752;2023-09-19T02:50:38;20.40;95.40
78054;DHT22;67726;45.636;11.752;2023-09-19T02:53:05;20.30;95.50
78054;DHT22;67726;45.636;11.752;2023-09-19T02:55:32;20.30;95.40
78054;DHT22;67726;45.636;11.752;2023-09-19T02:57:58;20.30;95.40
78054;DHT22;67726;45.636;11.752;2023-09-19T03:00:24;20.30;95.50
78054;DHT22;67726;45.636;11.752;2023-09-19T03:02:52;20.30;95.40
78054;DHT22;67726;45.636;11.752;2023-09-19T03:05:19;20.20;95.60
78054;DHT22;67726;45.636;11.752;2023-09-19T03:07:45;20.20;95.30
78054;DHT22;67726;45.636;11.752;2023-09-19T03:10:21;20.20;95.20
78054;DHT22;67726;45.636;11.752;2023-09-19T03:12:47;20.10;95.10
78054;DHT22;67726;45.636;11.752;2023-09-19T03:15:14;20.10;95.10
78054;DHT22;67726;45.636;11.752;2023-09-19T03:17:50;20.10;95.40
78054;DHT22;67726;45.636;11.752;2023-09-19T03:20:17;20.10;95.30
78054;DHT22;67726;45.636;11.752;2023-09-19T03:22:43;20.00;95.20
78054;DHT22;67726;45.636;11.752;2023-09-19T03:25:09;20.00;95.20
78054;DHT22;67726;45.636;11.752;2023-09-19T03:27:38;20.00;95.40
78054;DHT22;67726;45.636;11.752;2023-09-19T03:30:07;19.90;95.20
78054;DHT22;67726;45.636;11.752;2023-09-19T03:32:43;20.00;95.60
78054;DHT22;67726;45.636;11.752;2023-09-19T03:35:08;19.90;95.50
78054;DHT22;67726;45.636;11.752;2023-09-19T03:37:34;19.90;95.80
78054;DHT22;67726;45.636;11.752;2023-09-19T03:40:00;20.00;95.60
78054;DHT22;67726;45.636;11.752;2023-09-19T03:42:30;19.90;95.40
78054;DHT22;67726;45.636;11.752;2023-09-19T03:44:56;19.90;95.50
78054;DHT22;67726;45.636;11.752;2023-09-19T03:47:22;19.80;95.30
78054;DHT22;67726;45.636;11.752;2023-09-19T03:49:48;19.80;95.40
78054;DHT22;67726;45.636;11.752;2023-09-19T03:52:13;19.80;95.30
78054;DHT22;67726;45.636;11.752;2023-09-19T03:54:41;19.80;95.40
78054;DHT22;67726;45.636;11.752;2023-09-19T03:57:07;19.80;95.40
78054;DHT22;67726;45.636;11.752;2023-09-19T03:59:33;19.80;95.30
78054;DHT22;67726;45.636;11.752;2023-09-19T04:01:58;19.70;95.40
78054;DHT22;67726;45.636;11.752;2023-09-19T04:04:24;19.70;95.30
78054;DHT22;67726;45.636;11.752;2023-09-19T04:06:53;19.70;95.50
78054;DHT22;67726;45.636;11.752;2023-09-19T04:09:19;19.80;95.40
78054;DHT22;67726;45.636;11.752;2023-09-19T04:11:44;19.70;95.60
78054;DHT22;67726;45.636;11.752;2023-09-19T04:14:10;19.80;95.50
78054;DHT22;67726;45.636;11.752;2023-09-19T04:16:36;19.70;95.30
78054;DHT22;67726;45.636;11.752;2023-09-19T04:19:01;19.70;95.60
78054;DHT22;67726;45.636;11.752;2023-09-19T04:21:28;19.60;95.60
78054;DHT22;67726;45.636;11.752;2023-09-19T04:23:54;19.70;95.50
78054;DHT22;67726;45.636;11.752;2023-09-19T04:26:20;19.70;95.50
78054;DHT22;67726;45.636;11.752;2023-09-19T04:28:47;19.60;95.30
78054;DHT22;67726;45.636;11.752;2023-09-19T04:31:12;19.60;95.20
78054;DHT22;67726;45.636;11.752;2023-09-19T04:33:39;19.70;95.40
78054;DHT22;67726;45.636;11.752;2023-09-19T04:36:05;19.60;95.20
78054;DHT22;67726;45.636;11.752;2023-09-19T04:38:33;19.60;95.30
78054;DHT22;67726;45.636;11.752;2023-09-19T04:40:58;19.60;95.30
78054;DHT22;67726;45.636;11.752;2023-09-19T04:43:25;19.50;95.10
78054;DHT22;67726;45.636;11.752;2023-09-19T04:45:51;19.60;95.40
78054;DHT22;67726;45.636;11.752;2023-09-19T04:48:21;19.50;95.30
78054;DHT22;67726;45.636;11.752;2023-09-19T04:50:48;19.50;95.40
78054;DHT22;67726;45.636;11.752;2023-09-19T04:53:14;19.50;95.40
78054;DHT22;67726;45.636;11.752;2023-09-19T04:55:40;19.50;95.40
78054;DHT22;67726;45.636;11.752;2023-09-19T04:58:06;19.50;95.50
78054;DHT22;67726;45.636;11.752;2023-09-19T05:00:31;19.60;95.60
78054;DHT22;67726;45.636;11.752;2023-09-19T05:03:00;19.60;95.60
78054;DHT22;67726;45.636;11.752;2023-09-19T05:05:26;19.50;95.50
78054;DHT22;67726;45.636;11.752;2023-09-19T05:07:52;19.60;95.50
78054;DHT22;67726;45.636;11.752;2023-09-19T05:10:19;19.60;95.40
78054;DHT22;67726;45.636;11.752;2023-09-19T05:12:45;19.50;95.60
78054;DHT22;67726;45.636;11.752;2023-09-19T05:15:14;19.60;95.40
78054;DHT22;67726;45.636;11.752;2023-09-19T05:17:51;19.70;95.30
78054;DHT22;67726;45.636;11.752;2023-09-19T05:20:17;19.60;95.40
78054;DHT22;67726;45.636;11.752;2023-09-19T05:23:07;19.70;95.40
78054;DHT22;67726;45.636;11.752;2023-09-19T05:25:39;19.80;95.80
78054;DHT22;67726;45.636;11.752;2023-09-19T05:28:06;19.80;95.70
78054;DHT22;67726;45.636;11.752;2023-09-19T05:30:33;19.90;95.90
78054;DHT22;67726;45.636;11.752;2023-09-19T05:32:59;20.00;95.70
78054;DHT22;67726;45.636;11.752;2023-09-19T05:35:25;20.10;95.80
78054;DHT22;67726;45.636;11.752;2023-09-19T05:37:52;20.20;95.70
78054;DHT22;67726;45.636;11.752;2023-09-19T05:40:18;20.30;95.50
78054;DHT22;67726;45.636;11.752;2023-09-19T05:42:44;20.40;95.30
78054;DHT22;67726;45.636;11.752;2023-09-19T05:45:10;20.60;95.20
78054;DHT22;67726;45.636;11.752;2023-09-19T05:47:42;20.70;95.10
78054;DHT22;67726;45.636;11.752;2023-09-19T05:50:10;20.90;94.80
78054;DHT22;67726;45.636;11.752;2023-09-19T05:52:36;20.90;92.90
78054;DHT22;67726;45.636;11.752;2023-09-19T05:55:04;21.10;93.10
78054;DHT22;67726;45.636;11.752;2023-09-19T05:57:32;21.40;92.60
78054;DHT22;67726;45.636;11.752;2023-09-19T05:59:58;21.60;92.80
78054;DHT22;67726;45.636;11.752;2023-09-19T06:02:24;21.80;92.50
78054;DHT22;67726;45.636;11.752;2023-09-19T06:04:51;22.00;91.30
78054;DHT22;67726;45.636;11.752;2023-09-19T06:07:18;22.30;90.40
78054;DHT22;67726;45.636;11.752;2023-09-19T06:09:44;22.60;89.50
78054;DHT22;67726;45.636;11.752;2023-09-19T06:12:09;22.80;90.00
78054;DHT22;67726;45.636;11.752;2023-09-19T06:14:39;23.10;90.00
78054;DHT22;67726;45.636;11.752;2023-09-19T06:17:05;23.30;88.50
78054;DHT22;67726;45.636;11.752;2023-09-19T06:19:32;23.60;88.00
78054;DHT22;67726;45.636;11.752;2023-09-19T06:21:58;23.70;87.30
78054;DHT22;67726;45.636;11.752;2023-09-19T06:24:25;24.00;86.80
78054;DHT22;67726;45.636;11.752;2023-09-19T06:26:51;24.30;85.80
78054;DHT22;67726;45.636;11.752;2023-09-19T06:29:18;24.50;86.10
78054;DHT22;67726;45.636;11.752;2023-09-19T06:31:46;24.70;83.10
78054;DHT22;67726;45.636;11.752;2023-09-19T06:34:12;24.90;84.40
78054;DHT22;67726;45.636;11.752;2023-09-19T06:36:41;25.20;83.40
78054;DHT22;67726;45.636;11.752;2023-09-19T06:39:07;25.40;79.90
78054;DHT22;67726;45.636;11.752;2023-09-19T06:41:39;25.60;82.50
78054;DHT22;67726;45.636;11.752;2023-09-19T06:44:05;25.90;80.90
78054;DHT22;67726;45.636;11.752;2023-09-19T06:46:31;26.10;82.20
78054;DHT22;67726;45.636;11.752;2023-09-19T06:49:01;26.40;79.40
78054;DHT22;67726;45.636;11.752;2023-09-19T06:51:32;26.60;79.80
78054;DHT22;67726;45.636;11.752;2023-09-19T06:54:01;27.00;80.00
78054;DHT22;67726;45.636;11.752;2023-09-19T06:56:27;27.20;77.80
78054;DHT22;67726;45.636;11.752;2023-09-19T06:58:52;27.40;77.90
78054;DHT22;67726;45.636;11.752;2023-09-19T07:01:18;27.60;76.00
78054;DHT22;67726;45.636;11.752;2023-09-19T07:03:44;27.80;76.10
78054;DHT22;67726;45.636;11.752;2023-09-19T07:06:11;27.90;75.70
78054;DHT22;67726;45.636;11.752;2023-09-19T07:08:36;27.90;76.60
78054;DHT22;67726;45.636;11.752;2023-09-19T07:11:03;28.30;75.90
78054;DHT22;67726;45.636;11.752;2023-09-19T07:13:31;28.60;74.90
78054;DHT22;67726;45.636;11.752;2023-09-19T07:15:58;28.90;75.20
78054;DHT22;67726;45.636;11.752;2023-09-19T07:18:25;29.20;73.00
78054;DHT22;67726;45.636;11.752;2023-09-19T07:20:51;29.40;72.20
78054;DHT22;67726;45.636;11.752;2023-09-19T07:23:26;29.60;67.60
78054;DHT22;67726;45.636;11.752;2023-09-19T07:25:52;29.90;66.80
78054;DHT22;67726;45.636;11.752;2023-09-19T07:28:22;30.20;65.60
78054;DHT22;67726;45.636;11.752;2023-09-19T07:30:48;30.40;67.50
78054;DHT22;67726;45.636;11.752;2023-09-19T07:33:14;30.70;63.10
78054;DHT22;67726;45.636;11.752;2023-09-19T07:35:40;31.00;63.80
78054;DHT22;67726;45.636;11.752;2023-09-19T07:38:06;31.10;60.80
78054;DHT22;67726;45.636;11.752;2023-09-19T07:40:32;31.50;63.50
78054;DHT22;67726;45.636;11.752;2023-09-19T07:42:57;31.30;59.90
78054;DHT22;67726;45.636;11.752;2023-09-19T07:45:30;31.60;58.40
78054;DHT22;67726;45.636;11.752;2023-09-19T07:47:58;31.80;58.70
78054;DHT22;67726;45.636;11.752;2023-09-19T07:50:24;32.00;56.00
78054;DHT22;67726;45.636;11.752;2023-09-19T07:52:52;32.20;57.40
78054;DHT22;67726;45.636;11.752;2023-09-19T07:55:19;32.50;56.70
78054;DHT22;67726;45.636;11.752;2023-09-19T07:57:48;32.70;57.00
78054;DHT22;67726;45.636;11.752;2023-09-19T08:00:15;33.00;54.70
78054;DHT22;67726;45.636;11.752;2023-09-19T08:02:41;33.20;55.20
78054;DHT22;67726;45.636;11.752;2023-09-19T08:05:08;33.50;54.80
78054;DHT22;67726;45.636;11.752;2023-09-19T08:07:41;33.80;49.70
78054;DHT22;67726;45.636;11.752;2023-09-19T08:10:07;31.40;56.80
78054;DHT22;67726;45.636;11.752;2023-09-19T08:12:34;31.30;57.00
78054;DHT22;67726;45.636;11.752;2023-09-19T08:15:04;31.90;56.30
78054;DHT22;67726;45.636;11.752;2023-09-19T08:17:35;31.60;56.90
78054;DHT22;67726;45.636;11.752;2023-09-19T08:20:01;31.40;57.10
78054;DHT22;67726;45.636;11.752;2023-09-19T08:22:28;30.80;58.80
78054;DHT22;67726;45.636;11.752;2023-09-19T08:24:54;31.90;56.60
78054;DHT22;67726;45.636;11.752;2023-09-19T08:27:21;33.00;56.20
78054;DHT22;67726;45.636;11.752;2023-09-19T08:29:47;34.00;51.80
78054;DHT22;67726;45.636;11.752;2023-09-19T08:32:13;34.60;50.50
78054;DHT22;67726;45.636;11.752;2023-09-19T08:34:41;35.40;45.20
78054;DHT22;67726;45.636;11.752;2023-09-19T08:37:07;35.80;47.30
78054;DHT22;67726;45.636;11.752;2023-09-19T08:39:33;34.50;46.20
78054;DHT22;67726;45.636;11.752;2023-09-19T08:42:01;35.30;46.80
78054;DHT22;67726;45.636;11.752;2023-09-19T08:44:27;36.50;43.30
78054;DHT22;67726;45.636;11.752;2023-09-19T08:47:05;36.60;44.90
78054;DHT22;67726;45.636;11.752;2023-09-19T08:49:41;37.30;42.70
78054;DHT22;67726;45.636;11.752;2023-09-19T08:52:32;38.20;39.00
78054;DHT22;67726;45.636;11.752;2023-09-19T08:55:02;38.90;37.20
78054;DHT22;67726;45.636;11.752;2023-09-19T08:57:34;39.30;37.00
78054;DHT22;67726;45.636;11.752;2023-09-19T09:00:04;39.20;38.20
78054;DHT22;67726;45.636;11.752;2023-09-19T09:02:40;39.70;37.20
78054;DHT22;67726;45.636;11.752;2023-09-19T09:05:08;39.70;35.70
78054;DHT22;67726;45.636;11.752;2023-09-19T09:07:36;39.50;37.70
78054;DHT22;67726;45.636;11.752;2023-09-19T09:10:03;39.30;37.20
78054;DHT22;67726;45.636;11.752;2023-09-19T09:12:31;40.20;37.00
78054;DHT22;67726;45.636;11.752;2023-09-19T09:14:58;41.10;35.80
78054;DHT22;67726;45.636;11.752;2023-09-19T09:17:24;41.10;34.00
78054;DHT22;67726;45.636;11.752;2023-09-19T09:19:52;40.70;34.20
78054;DHT22;67726;45.636;11.752;2023-09-19T09:22:18;41.10;33.70
78054;DHT22;67726;45.636;11.752;2023-09-19T09:24:59;40.90;33.00
78054;DHT22;67726;45.636;11.752;2023-09-19T09:27:29;40.10;32.10
78054;DHT22;67726;45.636;11.752;2023-09-19T09:29:54;40.70;30.50
78054;DHT22;67726;45.636;11.752;2023-09-19T09:32:22;38.00;34.10
78054;DHT22;67726;45.636;11.752;2023-09-19T09:34:53;38.00;36.50
78054;DHT22;67726;45.636;11.752;2023-09-19T09:37:20;39.30;33.10
78054;DHT22;67726;45.636;11.752;2023-09-19T09:40:04;40.10;32.20
78054;DHT22;67726;45.636;11.752;2023-09-19T09:42:56;40.80;30.70
78054;DHT22;67726;45.636;11.752;2023-09-19T09:45:24;40.80;31.20
78054;DHT22;67726;45.636;11.752;2023-09-19T09:48:00;40.20;30.90
78054;DHT22;67726;45.636;11.752;2023-09-19T09:50:30;39.90;32.40
78054;DHT22;67726;45.636;11.752;2023-09-19T09:53:28;39.60;32.10
78054;DHT22;67726;45.636;11.752;2023-09-19T09:56:02;40.40;29.50
78054;DHT22;67726;45.636;11.752;2023-09-19T09:58:35;41.20;30.50
78054;DHT22;67726;45.636;11.752;2023-09-19T10:01:03;41.20;28.60
78054;DHT22;67726;45.636;11.752;2023-09-19T10:03:40;40.70;29.70
78054;DHT22;67726;45.636;11.752;2023-09-19T10:06:11;41.30;28.20
78054;DHT22;67726;45.636;11.752;2023-09-19T10:11:45;40.40;28.30
78054;DHT22;67726;45.636;11.752;2023-09-19T10:14:13;39.80;30.00
78054;DHT22;67726;45.636;11.752;2023-09-19T10:16:47;40.30;28.60
78054;DHT22;67726;45.636;11.752;2023-09-19T10:22:12;41.50;27.60
78054;DHT22;67726;45.636;11.752;2023-09-19T10:24:40;40.60;27.70
78054;DHT22;67726;45.636;11.752;2023-09-19T10:27:07;39.70;29.50
78054;DHT22;67726;45.636;11.752;2023-09-19T10:29:39;40.30;28.60
78054;DHT22;67726;45.636;11.752;2023-09-19T10:32:06;41.10;27.30
78054;DHT22;67726;45.636;11.752;2023-09-19T10:34:35;40.60;27.50
78054;DHT22;67726;45.636;11.752;2023-09-19T10:37:02;41.30;27.10
78054;DHT22;67726;45.636;11.752;2023-09-19T10:39:32;39.70;28.80
78054;DHT22;67726;45.636;11.752;2023-09-19T10:42:02;39.30;29.30
78054;DHT22;67726;45.636;11.752;2023-09-19T10:44:32;39.10;29.70
78054;DHT22;67726;45.636;11.752;2023-09-19T10:46:58;39.70;30.20
78054;DHT22;67726;45.636;11.752;2023-09-19T10:49:24;40.30;28.60
78054;DHT22;67726;45.636;11.752;2023-09-19T10:51:56;39.40;28.70
78054;DHT22;67726;45.636;11.752;2023-09-19T10:54:27;38.80;30.20
78054;DHT22;67726;45.636;11.752;2023-09-19T10:56:55;38.00;31.10
78054;DHT22;67726;45.636;11.752;2023-09-19T10:59:24;37.30;32.50
78054;DHT22;67726;45.636;11.752;2023-09-19T11:01:56;36.90;34.30
78054;DHT22;67726;45.636;11.752;2023-09-19T11:04:32;36.70;35.20
78054;DHT22;67726;45.636;11.752;2023-09-19T11:07:09;36.90;35.10
78054;DHT22;67726;45.636;11.752;2023-09-19T11:09:51;36.30;35.00
78054;DHT22;67726;45.636;11.752;2023-09-19T11:14:59;34.90;37.00
78054;DHT22;67726;45.636;11.752;2023-09-19T11:17:43;34.50;38.40
78054;DHT22;67726;45.636;11.752;2023-09-19T11:30:40;34.20;40.50
78054;DHT22;67726;45.636;11.752;2023-09-19T11:33:25;34.30;39.00
78054;DHT22;67726;45.636;11.752;2023-09-19T11:36:17;33.70;39.50
78054;DHT22;67726;45.636;11.752;2023-09-19T11:43:47;32.80;41.30
78054;DHT22;67726;45.636;11.752;2023-09-19T11:46:13;32.70;41.80
78054;DHT22;67726;45.636;11.752;2023-09-19T11:48:43;32.70;41.60
78054;DHT22;67726;45.636;11.752;2023-09-19T11:51:18;32.50;41.80
78054;DHT22;67726;45.636;11.752;2023-09-19T11:53:52;32.60;42.50
78054;DHT22;67726;45.636;11.752;2023-09-19T11:56:20;32.70;42.50
78054;DHT22;67726;45.636;11.752;2023-09-19T11:58:49;32.80;42.20
78054;DHT22;67726;45.636;11.752;2023-09-19T12:01:25;33.20;42.50
78054;DHT22;67726;45.636;11.752;2023-09-19T12:03:55;33.80;41.40
78054;DHT22;67726;45.636;11.752;2023-09-19T12:06:28;34.50;38.00
78054;DHT22;67726;45.636;11.752;2023-09-19T12:09:02;34.90;37.30
78054;DHT22;67726;45.636;11.752;2023-09-19T12:11:32;35.30;37.00
78054;DHT22;67726;45.636;11.752;2023-09-19T12:14:04;36.20;35.70
78054;DHT22;67726;45.636;11.752;2023-09-19T12:16:29;36.90;34.10
78054;DHT22;67726;45.636;11.752;2023-09-19T12:18:57;37.30;32.80
78054;DHT22;67726;45.636;11.752;2023-09-19T12:21:30;37.50;32.00
78054;DHT22;67726;45.636;11.752;2023-09-19T12:24:14;37.40;31.50
78054;DHT22;67726;45.636;11.752;2023-09-19T12:26:45;37.20;31.90
78054;DHT22;67726;45.636;11.752;2023-09-19T12:29:21;36.80;32.20
78054;DHT22;67726;45.636;11.752;2023-09-19T12:31:57;36.40;33.00
78054;DHT22;67726;45.636;11.752;2023-09-19T12:34:30;36.10;32.70
78054;DHT22;67726;45.636;11.752;2023-09-19T12:39:48;35.00;35.20
78054;DHT22;67726;45.636;11.752;2023-09-19T12:42:16;34.50;36.60
78054;DHT22;67726;45.636;11.752;2023-09-19T12:44:44;34.20;37.70
78054;DHT22;67726;45.636;11.752;2023-09-19T12:47:11;33.60;38.70
78054;DHT22;67726;45.636;11.752;2023-09-19T12:50:10;33.30;38.70
78054;DHT22;67726;45.636;11.752;2023-09-19T12:52:41;33.00;39.30
78054;DHT22;67726;45.636;11.752;2023-09-19T12:55:07;32.90;39.60
78054;DHT22;67726;45.636;11.752;2023-09-19T12:57:35;32.90;39.80
78054;DHT22;67726;45.636;11.752;2023-09-19T13:00:04;32.60;39.70
78054;DHT22;67726;45.636;11.752;2023-09-19T13:02:31;31.70;43.00
78054;DHT22;67726;45.636;11.752;2023-09-19T13:04:58;31.20;45.10
78054;DHT22;67726;45.636;11.752;2023-09-19T13:07:45;30.70;44.80
78054;DHT22;67726;45.636;11.752;2023-09-19T13:10:13;31.00;44.40
78054;DHT22;67726;45.636;11.752;2023-09-19T13:12:42;31.20;44.60
78054;DHT22;67726;45.636;11.752;2023-09-19T13:15:10;31.80;44.00
78054;DHT22;67726;45.636;11.752;2023-09-19T13:17:46;32.00;41.80
78054;DHT22;67726;45.636;11.752;2023-09-19T13:20:24;32.10;42.10
78054;DHT22;67726;45.636;11.752;2023-09-19T13:22:53;32.20;40.20
78054;DHT22;67726;45.636;11.752;2023-09-19T13:25:21;32.30;41.00
78054;DHT22;67726;45.636;11.752;2023-09-19T13:27:54;32.30;40.90
78054;DHT22;67726;45.636;11.752;2023-09-19T13:30:26;32.20;40.10
78054;DHT22;67726;45.636;11.752;2023-09-19T13:33:03;32.00;40.60
78054;DHT22;67726;45.636;11.752;2023-09-19T13:35:30;31.90;41.20
78054;DHT22;67726;45.636;11.752;2023-09-19T13:37:58;31.90;41.70
78054;DHT22;67726;45.636;11.752;2023-09-19T13:40:24;32.20;42.00
78054;DHT22;67726;45.636;11.752;2023-09-19T13:43:00;33.00;40.80
78054;DHT22;67726;45.636;11.752;2023-09-19T13:45:26;33.40;39.40
78054;DHT22;67726;45.636;11.752;2023-09-19T13:47:52;33.50;38.70
78054;DHT22;67726;45.636;11.752;2023-09-19T13:50:19;33.70;35.20
78054;DHT22;67726;45.636;11.752;2023-09-19T13:52:50;34.00;36.80
78054;DHT22;67726;45.636;11.752;2023-09-19T13:55:17;34.40;37.20
78054;DHT22;67726;45.636;11.752;2023-09-19T13:57:49;34.90;36.30
78054;DHT22;67726;45.636;11.752;2023-09-19T14:00:21;35.20;33.90
78054;DHT22;67726;45.636;11.752;2023-09-19T14:02:48;35.60;34.60
78054;DHT22;67726;45.636;11.752;2023-09-19T14:05:15;36.10;33.70
78054;DHT22;67726;45.636;11.752;2023-09-19T14:07:44;36.60;33.30
78054;DHT22;67726;45.636;11.752;2023-09-19T14:10:11;36.90;31.50
78054;DHT22;67726;45.636;11.752;2023-09-19T14:12:37;37.30;31.90
78054;DHT22;67726;45.636;11.752;2023-09-19T14:15:08;37.30;29.90
78054;DHT22;67726;45.636;11.752;2023-09-19T14:17:34;37.10;31.70
78054;DHT22;67726;45.636;11.752;2023-09-19T14:20:00;37.10;31.40
78054;DHT22;67726;45.636;11.752;2023-09-19T14:22:26;37.00;31.60
78054;DHT22;67726;45.636;11.752;2023-09-19T14:24:51;37.30;31.20
78054;DHT22;67726;45.636;11.752;2023-09-19T14:27:18;37.50;30.60
78054;DHT22;67726;45.636;11.752;2023-09-19T14:29:44;37.40;30.00
78054;DHT22;67726;45.636;11.752;2023-09-19T14:32:10;37.30;30.30
78054;DHT22;67726;45.636;11.752;2023-09-19T14:34:36;36.90;30.50
78054;DHT22;67726;45.636;11.752;2023-09-19T14:37:10;36.80;30.70
78054;DHT22;67726;45.636;11.752;2023-09-19T14:39:37;36.90;31.40
78054;DHT22;67726;45.636;11.752;2023-09-19T14:42:05;36.70;30.60
78054;DHT22;67726;45.636;11.752;2023-09-19T14:44:31;36.10;30.70
78054;DHT22;67726;45.636;11.752;2023-09-19T14:46:56;36.10;31.90
78054;DHT22;67726;45.636;11.752;2023-09-19T14:49:22;36.20;31.20
78054;DHT22;67726;45.636;11.752;2023-09-19T14:51:48;35.80;31.40
78054;DHT22;67726;45.636;11.752;2023-09-19T14:54:14;36.10;32.00
78054;DHT22;67726;45.636;11.752;2023-09-19T14:56:43;36.50;32.50
78054;DHT22;67726;45.636;11.752;2023-09-19T14:59:08;36.60;31.70
78054;DHT22;67726;45.636;11.752;2023-09-19T15:01:36;36.70;31.50
78054;DHT22;67726;45.636;11.752;2023-09-19T15:04:02;36.50;31.80
78054;DHT22;67726;45.636;11.752;2023-09-19T15:06:28;36.60;31.60
78054;DHT22;67726;45.636;11.752;2023-09-19T15:08:54;36.70;31.80
78054;DHT22;67726;45.636;11.752;2023-09-19T15:11:19;36.80;31.50
78054;DHT22;67726;45.636;11.752;2023-09-19T15:13:47;36.80;31.00
78054;DHT22;67726;45.636;11.752;2023-09-19T15:16:13;36.70;31.10
78054;DHT22;67726;45.636;11.752;2023-09-19T15:18:44;36.70;31.10
78054;DHT22;67726;45.636;11.752;2023-09-19T15:21:13;36.50;31.00
78054;DHT22;67726;45.636;11.752;2023-09-19T15:23:41;36.40;30.70
78054;DHT22;67726;45.636;11.752;2023-09-19T15:26:09;36.00;31.10
78054;DHT22;67726;45.636;11.752;2023-09-19T15:28:35;35.50;31.30
78054;DHT22;67726;45.636;11.752;2023-09-19T15:31:04;35.10;32.20
78054;DHT22;67726;45.636;11.752;2023-09-19T15:33:30;34.40;34.00
78054;DHT22;67726;45.636;11.752;2023-09-19T15:36:15;33.60;36.60
78054;DHT22;67726;45.636;11.752;2023-09-19T15:41:30;31.80;40.20
78054;DHT22;67726;45.636;11.752;2023-09-19T15:43:57;30.90;40.50
78054;DHT22;67726;45.636;11.752;2023-09-19T15:46:24;30.20;41.40
78054;DHT22;67726;45.636;11.752;2023-09-19T15:48:53;29.70;42.40
78054;DHT22;67726;45.636;11.752;2023-09-19T15:51:18;29.40;43.60
78054;DHT22;67726;45.636;11.752;2023-09-19T15:53:49;28.90;47.90
78054;DHT22;67726;45.636;11.752;2023-09-19T15:56:16;28.50;48.80
78054;DHT22;67726;45.636;11.752;2023-09-19T15:58:46;28.70;50.00
78054;DHT22;67726;45.636;11.752;2023-09-19T16:01:12;28.70;51.70
78054;DHT22;67726;45.636;11.752;2023-09-19T16:03:39;28.70;50.50
78054;DHT22;67726;45.636;11.752;2023-09-19T16:06:13;28.70;51.50
78054;DHT22;67726;45.636;11.752;2023-09-19T16:08:43;28.90;51.60
78054;DHT22;67726;45.636;11.752;2023-09-19T16:11:10;28.90;52.70